sensor_id;sensor_type;location;lat;lon;timestamp;P1;durP1;ratioP1;P2;durP2;ratioP2
16804;SDS011;8520;50.102;20.010;2023-05-09T05:01:16;36.30;;;33.90;;
16804;SDS011;8520;50.102;20.010;2023-05-09T05:03:45;35.73;;;33.50;;
16804;SDS011;8520;50.102;20.010;2023-05-09T05:06:13;34.47;;;32.17;;
16804;SDS011;8520;50.102;20.010;2023-05-09T05:08:41;34.87;;;32.57;;
16804;SDS011;8520;50.102;20.010;2023-05-09T05:11:10;35.37;;;33.20;;
16804;SDS011;8520;50.102;20.010;2023-05-09T05:13:39;34.37;;;32.13;;
16804;SDS011;8520;50.102;20.010;2023-05-09T05:16:09;32.00;;;29.90;;
16804;SDS011;8520;50.102;20.010;2023-05-09T05:18:38;31.87;;;29.77;;
16804;SDS011;8520;50.102;20.010;2023-05-09T05:21:07;31.73;;;29.43;;
16804;SDS011;8520;50.102;20.010;2023-05-09T05:23:35;30.03;;;27.97;;
16804;SDS011;8520;50.102;20.010;2023-05-09T05:26:04;29.97;;;27.93;;
16804;SDS011;8520;50.102;20.010;2023-05-09T05:28:34;29.53;;;27.43;;
16804;SDS011;8520;50.102;20.010;2023-05-09T05:31:03;28.90;;;26.80;;
16804;SDS011;8520;50.102;20.010;2023-05-09T05:33:31;27.20;;;25.27;;
16804;SDS011;8520;50.102;20.010;2023-05-09T05:36:01;27.60;;;25.67;;
16804;SDS011;8520;50.102;20.010;2023-05-09T05:38:30;26.30;;;24.30;;
16804;SDS011;8520;50.102;20.010;2023-05-09T05:40:58;25.70;;;23.90;;
16804;SDS011;8520;50.102;20.010;2023-05-09T05:43:28;23.80;;;22.40;;
16804;SDS011;8520;50.102;20.010;2023-05-09T05:45:56;23.43;;;21.83;;
16804;SDS011;8520;50.102;20.010;2023-05-09T05:48:27;23.17;;;21.60;;
16804;SDS011;8520;50.102;20.010;2023-05-09T05:50:56;22.60;;;21.10;;
16804;SDS011;8520;50.102;20.010;2023-05-09T05:53:29;23.00;;;21.30;;
16804;SDS011;8520;50.102;20.010;2023-05-09T05:55:58;20.43;;;19.13;;
16804;SDS011;8520;50.102;20.010;2023-05-09T05:58:27;21.13;;;19.73;;
16804;SDS011;8520;50.102;20.010;2023-05-09T06:00:55;19.57;;;18.40;;
16804;SDS011;8520;50.102;20.010;2023-05-09T06:03:24;19.07;;;17.90;;
16804;SDS011;8520;50.102;20.010;2023-05-09T06:06:01;18.03;;;16.53;;
16804;SDS011;8520;50.102;20.010;2023-05-09T06:08:31;17.30;;;16.27;;
16804;SDS011;8520;50.102;20.010;2023-05-09T06:11:00;17.80;;;16.47;;
16804;SDS011;8520;50.102;20.010;2023-05-09T06:13:28;16.87;;;15.47;;
16804;SDS011;8520;50.102;20.010;2023-05-09T06:16:01;15.97;;;14.83;;
16804;SDS011;8520;50.102;20.010;2023-05-09T06:18:46;15.90;;;14.67;;
16804;SDS011;8520;50.102;20.010;2023-05-09T06:21:15;15.70;;;14.70;;
16804;SDS011;8520;50.102;20.010;2023-05-09T06:23:44;16.07;;;14.83;;
16804;SDS011;8520;50.102;20.010;2023-05-09T06:26:32;15.13;;;14.13;;
16804;SDS011;8520;50.102;20.010;2023-05-09T06:29:00;15.57;;;14.23;;
16804;SDS011;8520;50.102;20.010;2023-05-09T06:31:28;16.03;;;14.43;;
16804;SDS011;8520;50.102;20.010;2023-05-09T06:33:56;16.43;;;14.80;;
16804;SDS011;8520;50.102;20.010;2023-05-09T06:36:24;15.27;;;14.17;;
16804;SDS011;8520;50.102;20.010;2023-05-09T06:38:54;14.40;;;13.40;;
16804;SDS011;8520;50.102;20.010;2023-05-09T06:41:22;14.43;;;13.33;;
16804;SDS011;8520;50.102;20.010;2023-05-09T06:43:50;14.33;;;13.13;;
16804;SDS011;8520;50.102;20.010;2023-05-09T06:46:18;15.93;;;14.67;;
16804;SDS011;8520;50.102;20.010;2023-05-09T06:48:47;15.70;;;14.20;;
16804;SDS011;8520;50.102;20.010;2023-05-09T06:51:15;15.00;;;13.57;;
16804;SDS011;8520;50.102;20.010;2023-05-09T06:53:43;15.50;;;14.03;;
16804;SDS011;8520;50.102;20.010;2023-05-09T06:56:12;14.37;;;13.27;;
16804;SDS011;8520;50.102;20.010;2023-05-09T06:58:42;14.23;;;13.30;;
16804;SDS011;8520;50.102;20.010;2023-05-09T07:01:10;12.80;;;11.80;;
16804;SDS011;8520;50.102;20.010;2023-05-09T07:03:38;13.57;;;12.47;;
16804;SDS011;8520;50.102;20.010;2023-05-09T07:06:06;13.27;;;12.10;;
16804;SDS011;8520;50.102;20.010;2023-05-09T07:08:35;12.97;;;11.80;;
16804;SDS011;8520;50.102;20.010;2023-05-09T07:11:03;14.40;;;12.90;;
16804;SDS011;8520;50.102;20.010;2023-05-09T07:13:32;12.97;;;11.80;;
16804;SDS011;8520;50.102;20.010;2023-05-09T07:16:00;13.33;;;12.43;;
16804;SDS011;8520;50.102;20.010;2023-05-09T07:18:29;12.00;;;10.90;;
16804;SDS011;8520;50.102;20.010;2023-05-09T07:20:57;13.23;;;12.20;;
16804;SDS011;8520;50.102;20.010;2023-05-09T07:23:25;12.50;;;11.70;;
16804;SDS011;8520;50.102;20.010;2023-05-09T07:25:57;12.07;;;11.07;;
16804;SDS011;8520;50.102;20.010;2023-05-09T07:28:25;12.37;;;11.13;;
16804;SDS011;8520;50.102;20.010;2023-05-09T07:30:55;11.93;;;10.87;;
16804;SDS011;8520;50.102;20.010;2023-05-09T07:33:23;11.70;;;10.80;;
16804;SDS011;8520;50.102;20.010;2023-05-09T07:35:51;12.10;;;10.63;;
16804;SDS011;8520;50.102;20.010;2023-05-09T07:38:19;11.10;;;10.10;;
16804;SDS011;8520;50.102;20.010;2023-05-09T07:40:47;11.20;;;10.00;;
16804;SDS011;8520;50.102;20.010;2023-05-09T07:43:15;11.13;;;9.97;;
16804;SDS011;8520;50.102;20.010;2023-05-09T07:45:44;11.03;;;9.90;;
16804;SDS011;8520;50.102;20.010;2023-05-09T07:48:14;8.87;;;8.17;;
16804;SDS011;8520;50.102;20.010;2023-05-09T07:50:42;10.13;;;9.10;;
16804;SDS011;8520;50.102;20.010;2023-05-09T07:53:10;9.43;;;8.63;;
16804;SDS011;8520;50.102;20.010;2023-05-09T07:55:38;8.47;;;7.97;;
16804;SDS011;8520;50.102;20.010;2023-05-09T07:58:06;9.63;;;8.57;;
16804;SDS011;8520;50.102;20.010;2023-05-09T08:00:34;9.40;;;8.30;;
16804;SDS011;8520;50.102;20.010;2023-05-09T08:03:02;9.50;;;8.27;;
16804;SDS011;8520;50.102;20.010;2023-05-09T08:05:32;7.90;;;7.20;;
16804;SDS011;8520;50.102;20.010;2023-05-09T08:08:00;7.87;;;7.27;;
16804;SDS011;8520;50.102;20.010;2023-05-09T08:10:28;8.97;;;7.40;;
16804;SDS011;8520;50.102;20.010;2023-05-09T08:12:57;8.40;;;7.77;;
16804;SDS011;8520;50.102;20.010;2023-05-09T08:15:25;8.57;;;7.30;;
16804;SDS011;8520;50.102;20.010;2023-05-09T08:17:53;9.07;;;7.30;;
16804;SDS011;8520;50.102;20.010;2023-05-09T08:20:22;7.10;;;6.50;;
16804;SDS011;8520;50.102;20.010;2023-05-09T08:22:51;8.07;;;7.37;;
16804;SDS011;8520;50.102;20.010;2023-05-09T08:25:19;8.40;;;6.63;;
16804;SDS011;8520;50.102;20.010;2023-05-09T08:27:47;7.30;;;6.70;;
16804;SDS011;8520;50.102;20.010;2023-05-09T08:30:18;7.93;;;7.10;;
16804;SDS011;8520;50.102;20.010;2023-05-09T08:32:46;6.27;;;5.87;;
16804;SDS011;8520;50.102;20.010;2023-05-09T08:35:15;7.27;;;6.60;;
16804;SDS011;8520;50.102;20.010;2023-05-09T08:37:43;7.00;;;6.50;;
16804;SDS011;8520;50.102;20.010;2023-05-09T08:40:21;5.97;;;5.37;;
16804;SDS011;8520;50.102;20.010;2023-05-09T08:42:49;6.30;;;5.70;;
16804;SDS011;8520;50.102;20.010;2023-05-09T08:45:19;9.13;;;5.70;;
16804;SDS011;8520;50.102;20.010;2023-05-09T08:47:53;7.53;;;5.97;;
16804;SDS011;8520;50.102;20.010;2023-05-09T08:50:22;6.10;;;5.60;;
16804;SDS011;8520;50.102;20.010;2023-05-09T08:52:51;5.90;;;5.50;;
16804;SDS011;8520;50.102;20.010;2023-05-09T08:55:21;5.78;;;5.35;;
16804;SDS011;8520;50.102;20.010;2023-05-09T08:57:50;5.53;;;5.03;;
16804;SDS011;8520;50.102;20.010;2023-05-09T09:00:19;6.78;;;5.22;;
16804;SDS011;8520;50.102;20.010;2023-05-09T09:02:48;6.18;;;5.35;;
16804;SDS011;8520;50.102;20.010;2023-05-09T09:05:18;5.43;;;5.03;;
16804;SDS011;8520;50.102;20.010;2023-05-09T09:08:06;5.22;;;4.90;;
16804;SDS011;8520;50.102;20.010;2023-05-09T09:10:39;5.53;;;5.13;;
16804;SDS011;8520;50.102;20.010;2023-05-09T09:13:09;6.32;;;5.70;;
16804;SDS011;8520;50.102;20.010;2023-05-09T09:15:39;5.95;;;4.63;;
16804;SDS011;8520;50.102;20.010;2023-05-09T09:18:11;7.03;;;5.03;;
16804;SDS011;8520;50.102;20.010;2023-05-09T09:20:44;5.22;;;4.93;;
16804;SDS011;8520;50.102;20.010;2023-05-09T09:23:16;6.78;;;5.43;;
16804;SDS011;8520;50.102;20.010;2023-05-09T09:25:47;5.82;;;5.30;;
16804;SDS011;8520;50.102;20.010;2023-05-09T09:28:16;8.50;;;5.47;;
16804;SDS011;8520;50.102;20.010;2023-05-09T09:30:45;6.88;;;5.40;;
16804;SDS011;8520;50.102;20.010;2023-05-09T09:33:20;7.05;;;4.60;;
16804;SDS011;8520;50.102;20.010;2023-05-09T09:35:50;5.63;;;5.00;;
16804;SDS011;8520;50.102;20.010;2023-05-09T09:38:19;5.20;;;4.68;;
16804;SDS011;8520;50.102;20.010;2023-05-09T09:40:50;8.45;;;5.45;;
16804;SDS011;8520;50.102;20.010;2023-05-09T09:43:25;7.40;;;4.95;;
16804;SDS011;8520;50.102;20.010;2023-05-09T09:45:53;5.10;;;4.15;;
16804;SDS011;8520;50.102;20.010;2023-05-09T09:48:23;6.43;;;4.22;;
16804;SDS011;8520;50.102;20.010;2023-05-09T09:50:52;6.63;;;4.72;;
16804;SDS011;8520;50.102;20.010;2023-05-09T09:53:22;7.57;;;4.95;;
16804;SDS011;8520;50.102;20.010;2023-05-09T09:55:57;11.23;;;5.70;;
16804;SDS011;8520;50.102;20.010;2023-05-09T09:58:25;8.00;;;5.68;;
16804;SDS011;8520;50.102;20.010;2023-05-09T10:01:03;4.80;;;4.40;;
16804;SDS011;8520;50.102;20.010;2023-05-09T10:03:36;5.18;;;4.38;;
16804;SDS011;8520;50.102;20.010;2023-05-09T10:06:08;5.78;;;5.18;;
16804;SDS011;8520;50.102;20.010;2023-05-09T10:08:37;5.00;;;4.50;;
16804;SDS011;8520;50.102;20.010;2023-05-09T10:11:07;5.03;;;4.60;;
16804;SDS011;8520;50.102;20.010;2023-05-09T10:13:36;7.32;;;5.00;;
16804;SDS011;8520;50.102;20.010;2023-05-09T10:16:04;5.20;;;4.32;;
16804;SDS011;8520;50.102;20.010;2023-05-09T10:18:35;5.22;;;4.28;;
16804;SDS011;8520;50.102;20.010;2023-05-09T10:21:05;5.80;;;5.07;;
16804;SDS011;8520;50.102;20.010;2023-05-09T10:23:36;5.30;;;4.32;;
16804;SDS011;8520;50.102;20.010;2023-05-09T10:26:14;5.72;;;5.20;;
16804;SDS011;8520;50.102;20.010;2023-05-09T10:28:45;8.68;;;4.38;;
16804;SDS011;8520;50.102;20.010;2023-05-09T10:31:16;5.18;;;4.88;;
16804;SDS011;8520;50.102;20.010;2023-05-09T10:33:49;4.53;;;4.13;;
16804;SDS011;8520;50.102;20.010;2023-05-09T10:36:18;4.18;;;3.88;;
16804;SDS011;8520;50.102;20.010;2023-05-09T10:38:47;6.13;;;4.80;;
16804;SDS011;8520;50.102;20.010;2023-05-09T10:41:17;5.07;;;4.50;;
16804;SDS011;8520;50.102;20.010;2023-05-09T10:43:47;7.10;;;4.32;;
16804;SDS011;8520;50.102;20.010;2023-05-09T10:46:16;4.93;;;4.53;;
16804;SDS011;8520;50.102;20.010;2023-05-09T10:48:44;5.22;;;3.97;;
16804;SDS011;8520;50.102;20.010;2023-05-09T10:51:15;5.40;;;4.90;;
16804;SDS011;8520;50.102;20.010;2023-05-09T10:53:44;6.10;;;4.45;;
16804;SDS011;8520;50.102;20.010;2023-05-09T10:56:25;7.00;;;5.75;;
16804;SDS011;8520;50.102;20.010;2023-05-09T10:58:57;4.95;;;4.30;;
16804;SDS011;8520;50.102;20.010;2023-05-09T11:01:29;7.20;;;5.35;;
16804;SDS011;8520;50.102;20.010;2023-05-09T11:04:01;9.13;;;5.15;;
16804;SDS011;8520;50.102;20.010;2023-05-09T11:06:39;5.13;;;4.55;;
16804;SDS011;8520;50.102;20.010;2023-05-09T11:12:08;4.93;;;4.45;;
16804;SDS011;8520;50.102;20.010;2023-05-09T11:14:41;5.00;;;3.90;;
16804;SDS011;8520;50.102;20.010;2023-05-09T11:17:11;4.07;;;3.65;;
16804;SDS011;8520;50.102;20.010;2023-05-09T11:19:57;4.10;;;3.88;;
16804;SDS011;8520;50.102;20.010;2023-05-09T11:22:27;3.67;;;3.47;;
16804;SDS011;8520;50.102;20.010;2023-05-09T11:24:59;4.35;;;3.88;;
16804;SDS011;8520;50.102;20.010;2023-05-09T11:27:37;8.25;;;4.07;;
16804;SDS011;8520;50.102;20.010;2023-05-09T11:30:08;4.63;;;4.22;;
16804;SDS011;8520;50.102;20.010;2023-05-09T11:32:41;5.65;;;4.00;;
16804;SDS011;8520;50.102;20.010;2023-05-09T11:35:11;7.07;;;4.20;;
16804;SDS011;8520;50.102;20.010;2023-05-09T11:37:45;4.75;;;4.15;;
16804;SDS011;8520;50.102;20.010;2023-05-09T11:40:14;4.25;;;3.85;;
16804;SDS011;8520;50.102;20.010;2023-05-09T11:42:45;3.50;;;3.28;;
16804;SDS011;8520;50.102;20.010;2023-05-09T11:45:15;8.70;;;3.80;;
16804;SDS011;8520;50.102;20.010;2023-05-09T11:47:44;4.45;;;4.05;;
16804;SDS011;8520;50.102;20.010;2023-05-09T11:50:13;7.22;;;3.67;;
16804;SDS011;8520;50.102;20.010;2023-05-09T11:52:43;4.85;;;3.90;;
16804;SDS011;8520;50.102;20.010;2023-05-09T11:55:12;4.40;;;4.00;;
16804;SDS011;8520;50.102;20.010;2023-05-09T11:57:42;3.58;;;3.28;;
16804;SDS011;8520;50.102;20.010;2023-05-09T12:00:14;5.68;;;5.18;;
16804;SDS011;8520;50.102;20.010;2023-05-09T12:02:43;4.50;;;4.10;;
16804;SDS011;8520;50.102;20.010;2023-05-09T12:05:13;4.00;;;3.80;;
16804;SDS011;8520;50.102;20.010;2023-05-09T12:07:43;4.20;;;3.90;;
16804;SDS011;8520;50.102;20.010;2023-05-09T12:10:12;3.95;;;3.60;;
16804;SDS011;8520;50.102;20.010;2023-05-09T12:12:42;3.90;;;3.53;;
16804;SDS011;8520;50.102;20.010;2023-05-09T12:15:12;6.65;;;3.88;;
16804;SDS011;8520;50.102;20.010;2023-05-09T12:17:41;4.00;;;3.80;;
16804;SDS011;8520;50.102;20.010;2023-05-09T12:20:10;5.18;;;4.13;;
16804;SDS011;8520;50.102;20.010;2023-05-09T12:22:41;4.20;;;3.80;;
16804;SDS011;8520;50.102;20.010;2023-05-09T12:25:09;4.45;;;4.05;;
16804;SDS011;8520;50.102;20.010;2023-05-09T12:27:39;3.63;;;3.42;;
16804;SDS011;8520;50.102;20.010;2023-05-09T12:30:09;4.97;;;4.60;;
16804;SDS011;8520;50.102;20.010;2023-05-09T12:32:42;4.60;;;4.20;;
16804;SDS011;8520;50.102;20.010;2023-05-09T12:35:12;5.40;;;5.07;;
16804;SDS011;8520;50.102;20.010;2023-05-09T12:37:53;5.35;;;4.80;;
16804;SDS011;8520;50.102;20.010;2023-05-09T12:40:21;4.95;;;4.43;;
16804;SDS011;8520;50.102;20.010;2023-05-09T12:42:50;4.15;;;3.85;;
16804;SDS011;8520;50.102;20.010;2023-05-09T12:45:22;7.65;;;5.22;;
16804;SDS011;8520;50.102;20.010;2023-05-09T12:47:52;4.78;;;4.40;;
16804;SDS011;8520;50.102;20.010;2023-05-09T12:50:20;7.85;;;5.70;;
16804;SDS011;8520;50.102;20.010;2023-05-09T12:52:49;6.28;;;4.90;;
16804;SDS011;8520;50.102;20.010;2023-05-09T12:55:29;4.60;;;4.20;;
16804;SDS011;8520;50.102;20.010;2023-05-09T12:57:58;5.03;;;4.68;;
16804;SDS011;8520;50.102;20.010;2023-05-09T13:00:40;4.93;;;4.55;;
16804;SDS011;8520;50.102;20.010;2023-05-09T13:03:20;4.90;;;4.47;;
16804;SDS011;8520;50.102;20.010;2023-05-09T13:05:53;3.97;;;3.78;;
16804;SDS011;8520;50.102;20.010;2023-05-09T13:08:21;4.97;;;4.57;;
16804;SDS011;8520;50.102;20.010;2023-05-09T13:10:49;7.10;;;4.60;;
16804;SDS011;8520;50.102;20.010;2023-05-09T13:13:29;4.75;;;4.22;;
16804;SDS011;8520;50.102;20.010;2023-05-09T13:15:58;5.00;;;4.60;;
16804;SDS011;8520;50.102;20.010;2023-05-09T13:18:27;4.72;;;4.43;;
16804;SDS011;8520;50.102;20.010;2023-05-09T13:20:56;4.95;;;4.55;;
16804;SDS011;8520;50.102;20.010;2023-05-09T13:23:24;4.35;;;4.03;;
16804;SDS011;8520;50.102;20.010;2023-05-09T13:25:52;4.40;;;4.07;;
16804;SDS011;8520;50.102;20.010;2023-05-09T13:28:20;5.40;;;4.53;;
16804;SDS011;8520;50.102;20.010;2023-05-09T13:30:48;5.35;;;4.82;;
16804;SDS011;8520;50.102;20.010;2023-05-09T13:33:16;4.70;;;4.40;;
16804;SDS011;8520;50.102;20.010;2023-05-09T13:35:53;5.43;;;4.32;;
16804;SDS011;8520;50.102;20.010;2023-05-09T13:38:21;4.10;;;3.83;;
16804;SDS011;8520;50.102;20.010;2023-05-09T13:40:49;4.72;;;4.18;;
16804;SDS011;8520;50.102;20.010;2023-05-09T13:43:17;6.72;;;4.22;;
16804;SDS011;8520;50.102;20.010;2023-05-09T13:45:45;4.60;;;4.20;;
16804;SDS011;8520;50.102;20.010;2023-05-09T13:48:13;4.97;;;4.10;;
16804;SDS011;8520;50.102;20.010;2023-05-09T13:50:41;5.18;;;4.68;;
16804;SDS011;8520;50.102;20.010;2023-05-09T13:53:11;4.22;;;3.95;;
16804;SDS011;8520;50.102;20.010;2023-05-09T13:55:39;4.90;;;4.53;;
16804;SDS011;8520;50.102;20.010;2023-05-09T13:58:08;5.90;;;4.30;;
16804;SDS011;8520;50.102;20.010;2023-05-09T14:00:36;4.03;;;3.72;;
16804;SDS011;8520;50.102;20.010;2023-05-09T14:03:04;4.68;;;4.25;;
16804;SDS011;8520;50.102;20.010;2023-05-09T14:05:33;5.15;;;4.85;;
16804;SDS011;8520;50.102;20.010;2023-05-09T14:08:01;5.00;;;4.38;;
16804;SDS011;8520;50.102;20.010;2023-05-09T14:10:30;5.93;;;4.15;;
16804;SDS011;8520;50.102;20.010;2023-05-09T14:12:58;4.88;;;4.57;;
16804;SDS011;8520;50.102;20.010;2023-05-09T14:15:27;5.18;;;4.43;;
16804;SDS011;8520;50.102;20.010;2023-05-09T14:17:55;4.43;;;3.92;;
16804;SDS011;8520;50.102;20.010;2023-05-09T14:20:23;4.75;;;3.90;;
16804;SDS011;8520;50.102;20.010;2023-05-09T14:22:52;4.55;;;3.60;;
16804;SDS011;8520;50.102;20.010;2023-05-09T14:25:25;4.25;;;3.95;;
16804;SDS011;8520;50.102;20.010;2023-05-09T14:27:54;4.57;;;4.10;;
16804;SDS011;8520;50.102;20.010;2023-05-09T14:30:24;4.45;;;4.05;;
16804;SDS011;8520;50.102;20.010;2023-05-09T14:32:53;4.28;;;4.07;;
16804;SDS011;8520;50.102;20.010;2023-05-09T14:35:21;5.55;;;4.07;;
16804;SDS011;8520;50.102;20.010;2023-05-09T14:37:49;4.30;;;4.00;;
16804;SDS011;8520;50.102;20.010;2023-05-09T14:40:17;4.40;;;4.00;;
16804;SDS011;8520;50.102;20.010;2023-05-09T14:42:46;4.80;;;4.30;;
16804;SDS011;8520;50.102;20.010;2023-05-09T14:45:16;4.25;;;3.90;;
16804;SDS011;8520;50.102;20.010;2023-05-09T14:47:44;4.03;;;3.75;;
16804;SDS011;8520;50.102;20.010;2023-05-09T14:50:13;4.18;;;3.63;;
16804;SDS011;8520;50.102;20.010;2023-05-09T14:52:42;6.75;;;3.40;;
16804;SDS011;8520;50.102;20.010;2023-05-09T14:55:11;4.30;;;3.95;;
16804;SDS011;8520;50.102;20.010;2023-05-09T14:57:39;4.97;;;4.47;;
16804;SDS011;8520;50.102;20.010;2023-05-09T15:00:07;13.15;;;4.45;;
16804;SDS011;8520;50.102;20.010;2023-05-09T15:02:47;7.35;;;4.55;;
16804;SDS011;8520;50.102;20.010;2023-05-09T15:05:16;5.95;;;4.82;;
16804;SDS011;8520;50.102;20.010;2023-05-09T15:07:44;4.70;;;4.30;;
16804;SDS011;8520;50.102;20.010;2023-05-09T15:10:13;8.88;;;4.60;;
16804;SDS011;8520;50.102;20.010;2023-05-09T15:12:41;4.35;;;3.80;;
16804;SDS011;8520;50.102;20.010;2023-05-09T15:15:10;3.92;;;3.50;;
16804;SDS011;8520;50.102;20.010;2023-05-09T15:17:39;5.97;;;3.92;;
16804;SDS011;8520;50.102;20.010;2023-05-09T15:20:09;8.23;;;4.30;;
16804;SDS011;8520;50.102;20.010;2023-05-09T15:22:39;6.78;;;4.00;;
16804;SDS011;8520;50.102;20.010;2023-05-09T15:25:08;9.52;;;4.80;;
16804;SDS011;8520;50.102;20.010;2023-05-09T15:27:36;6.13;;;5.10;;
16804;SDS011;8520;50.102;20.010;2023-05-09T15:30:05;6.93;;;5.20;;
16804;SDS011;8520;50.102;20.010;2023-05-09T15:32:35;7.50;;;5.20;;
16804;SDS011;8520;50.102;20.010;2023-05-09T15:35:08;5.40;;;4.90;;
16804;SDS011;8520;50.102;20.010;2023-05-09T15:37:37;5.50;;;5.00;;
16804;SDS011;8520;50.102;20.010;2023-05-09T15:40:05;4.72;;;4.20;;
16804;SDS011;8520;50.102;20.010;2023-05-09T15:42:34;4.25;;;3.85;;
16804;SDS011;8520;50.102;20.010;2023-05-09T15:45:03;3.95;;;3.65;;
16804;SDS011;8520;50.102;20.010;2023-05-09T15:47:31;4.90;;;3.67;;
16804;SDS011;8520;50.102;20.010;2023-05-09T15:50:00;5.38;;;4.88;;
16804;SDS011;8520;50.102;20.010;2023-05-09T15:52:29;5.05;;;3.28;;
16804;SDS011;8520;50.102;20.010;2023-05-09T15:54:58;5.03;;;4.72;;
16804;SDS011;8520;50.102;20.010;2023-05-09T15:57:26;5.32;;;4.93;;
16804;SDS011;8520;50.102;20.010;2023-05-09T15:59:54;4.07;;;3.78;;
16804;SDS011;8520;50.102;20.010;2023-05-09T16:02:23;4.05;;;3.75;;
16804;SDS011;8520;50.102;20.010;2023-05-09T16:04:54;4.60;;;4.30;;
16804;SDS011;8520;50.102;20.010;2023-05-09T16:07:22;5.60;;;4.05;;
16804;SDS011;8520;50.102;20.010;2023-05-09T16:09:52;4.00;;;3.80;;
16804;SDS011;8520;50.102;20.010;2023-05-09T16:12:20;4.38;;;4.18;;
16804;SDS011;8520;50.102;20.010;2023-05-09T16:14:49;6.38;;;4.68;;
16804;SDS011;8520;50.102;20.010;2023-05-09T16:17:18;4.53;;;4.22;;
16804;SDS011;8520;50.102;20.010;2023-05-09T16:19:46;4.90;;;4.50;;
16804;SDS011;8520;50.102;20.010;2023-05-09T16:22:14;5.32;;;4.78;;
16804;SDS011;8520;50.102;20.010;2023-05-09T16:24:42;5.40;;;4.65;;
16804;SDS011;8520;50.102;20.010;2023-05-09T16:27:12;5.05;;;4.60;;
16804;SDS011;8520;50.102;20.010;2023-05-09T16:29:40;4.50;;;4.30;;
16804;SDS011;8520;50.102;20.010;2023-05-09T16:32:08;4.90;;;4.50;;
16804;SDS011;8520;50.102;20.010;2023-05-09T16:34:37;5.78;;;4.93;;
16804;SDS011;8520;50.102;20.010;2023-05-09T16:37:05;4.80;;;4.40;;
16804;SDS011;8520;50.102;20.010;2023-05-09T16:39:33;5.15;;;4.75;;
16804;SDS011;8520;50.102;20.010;2023-05-09T16:42:02;4.75;;;4.45;;
16804;SDS011;8520;50.102;20.010;2023-05-09T16:44:32;5.43;;;5.03;;
16804;SDS011;8520;50.102;20.010;2023-05-09T16:47:00;5.18;;;4.25;;
16804;SDS011;8520;50.102;20.010;2023-05-09T16:49:28;6.47;;;5.22;;
16804;SDS011;8520;50.102;20.010;2023-05-09T16:51:56;5.15;;;4.72;;
16804;SDS011;8520;50.102;20.010;2023-05-09T16:54:24;5.50;;;4.72;;
16804;SDS011;8520;50.102;20.010;2023-05-09T16:56:53;4.47;;;4.28;;
16804;SDS011;8520;50.102;20.010;2023-05-09T16:59:21;6.07;;;4.40;;
16804;SDS011;8520;50.102;20.010;2023-05-09T17:01:50;4.40;;;4.10;;
16804;SDS011;8520;50.102;20.010;2023-05-09T17:04:19;5.00;;;4.50;;
16804;SDS011;8520;50.102;20.010;2023-05-09T17:06:47;4.28;;;3.88;;
16804;SDS011;8520;50.102;20.010;2023-05-09T17:09:17;5.13;;;4.70;;
16804;SDS011;8520;50.102;20.010;2023-05-09T17:11:45;4.50;;;4.20;;
16804;SDS011;8520;50.102;20.010;2023-05-09T17:14:13;4.88;;;4.50;;
16804;SDS011;8520;50.102;20.010;2023-05-09T17:16:41;4.82;;;4.43;;
16804;SDS011;8520;50.102;20.010;2023-05-09T17:19:11;5.47;;;4.97;;
16804;SDS011;8520;50.102;20.010;2023-05-09T17:21:39;5.00;;;4.60;;
16804;SDS011;8520;50.102;20.010;2023-05-09T17:24:07;4.07;;;3.85;;
16804;SDS011;8520;50.102;20.010;2023-05-09T17:26:35;6.82;;;4.70;;
16804;SDS011;8520;50.102;20.010;2023-05-09T17:29:04;5.18;;;4.75;;
16804;SDS011;8520;50.102;20.010;2023-05-09T17:31:32;5.60;;;5.10;;
16804;SDS011;8520;50.102;20.010;2023-05-09T17:34:00;5.47;;;5.05;;
16804;SDS011;8520;50.102;20.010;2023-05-09T17:36:31;5.07;;;4.78;;
16804;SDS011;8520;50.102;20.010;2023-05-09T17:38:59;5.07;;;4.60;;
16804;SDS011;8520;50.102;20.010;2023-05-09T17:41:27;4.95;;;4.60;;
16804;SDS011;8520;50.102;20.010;2023-05-09T17:43:55;5.03;;;4.63;;
16804;SDS011;8520;50.102;20.010;2023-05-09T17:46:23;6.20;;;5.63;;
16804;SDS011;8520;50.102;20.010;2023-05-09T17:48:51;6.78;;;5.47;;
16804;SDS011;8520;50.102;20.010;2023-05-09T17:51:20;5.72;;;5.32;;
16804;SDS011;8520;50.102;20.010;2023-05-09T17:53:49;5.38;;;5.00;;
16804;SDS011;8520;50.102;20.010;2023-05-09T17:56:18;6.93;;;5.13;;
16804;SDS011;8520;50.102;20.010;2023-05-09T17:58:47;5.10;;;4.80;;
16804;SDS011;8520;50.102;20.010;2023-05-09T18:01:18;5.45;;;4.65;;
16804;SDS011;8520;50.102;20.010;2023-05-09T18:03:46;4.50;;;4.30;;
16804;SDS011;8520;50.102;20.010;2023-05-09T18:06:15;4.40;;;4.10;;
16804;SDS011;8520;50.102;20.010;2023-05-09T20:41:11;9.40;;;8.50;;
16804;SDS011;8520;50.102;20.010;2023-05-09T20:43:39;9.70;;;8.90;;
16804;SDS011;8520;50.102;20.010;2023-05-09T20:46:08;9.20;;;8.40;;
16804;SDS011;8520;50.102;20.010;2023-05-09T20:48:36;8.93;;;8.00;;
16804;SDS011;8520;50.102;20.010;2023-05-09T20:51:04;8.90;;;8.20;;
16804;SDS011;8520;50.102;20.010;2023-05-09T20:53:32;9.17;;;8.27;;
16804;SDS011;8520;50.102;20.010;2023-05-09T20:56:03;9.37;;;8.00;;
16804;SDS011;8520;50.102;20.010;2023-05-09T20:58:33;8.30;;;7.60;;
16804;SDS011;8520;50.102;20.010;2023-05-09T21:01:01;8.50;;;7.70;;
16804;SDS011;8520;50.102;20.010;2023-05-09T21:03:29;9.03;;;8.23;;
16804;SDS011;8520;50.102;20.010;2023-05-09T21:05:57;8.87;;;8.07;;
16804;SDS011;8520;50.102;20.010;2023-05-09T21:08:25;9.03;;;8.33;;
16804;SDS011;8520;50.102;20.010;2023-05-09T21:10:53;9.10;;;8.30;;
16804;SDS011;8520;50.102;20.010;2023-05-09T21:13:21;8.73;;;7.97;;
16804;SDS011;8520;50.102;20.010;2023-05-09T21:15:51;8.80;;;8.10;;
16804;SDS011;8520;50.102;20.010;2023-05-09T21:18:19;9.23;;;8.43;;
16804;SDS011;8520;50.102;20.010;2023-05-09T21:20:47;8.07;;;7.37;;
16804;SDS011;8520;50.102;20.010;2023-05-09T21:23:16;8.90;;;8.20;;
16804;SDS011;8520;50.102;20.010;2023-05-09T21:25:44;8.77;;;8.07;;
16804;SDS011;8520;50.102;20.010;2023-05-09T21:28:12;11.23;;;8.83;;
16804;SDS011;8520;50.102;20.010;2023-05-09T21:30:41;8.93;;;8.13;;
16804;SDS011;8520;50.102;20.010;2023-05-09T21:33:10;9.13;;;8.30;;
16804;SDS011;8520;50.102;20.010;2023-05-09T21:35:38;9.20;;;8.30;;
16804;SDS011;8520;50.102;20.010;2023-05-09T21:38:06;8.77;;;7.70;;
16804;SDS011;8520;50.102;20.010;2023-05-09T21:40:34;8.63;;;7.80;;
16804;SDS011;8520;50.102;20.010;2023-05-09T21:43:02;8.53;;;7.77;;
16804;SDS011;8520;50.102;20.010;2023-05-09T21:45:31;9.00;;;8.20;;
16804;SDS011;8520;50.102;20.010;2023-05-09T21:47:59;9.60;;;8.80;;
16804;SDS011;8520;50.102;20.010;2023-05-09T21:50:28;9.37;;;8.47;;
16804;SDS011;8520;50.102;20.010;2023-05-09T21:52:57;9.13;;;8.23;;
16804;SDS011;8520;50.102;20.010;2023-05-09T21:55:25;8.83;;;8.13;;
16804;SDS011;8520;50.102;20.010;2023-05-09T21:57:54;8.90;;;8.17;;
16804;SDS011;8520;50.102;20.010;2023-05-09T22:00:22;8.97;;;8.17;;
16804;SDS011;8520;50.102;20.010;2023-05-09T22:02:50;9.37;;;8.33;;
16804;SDS011;8520;50.102;20.010;2023-05-09T22:05:18;8.83;;;8.23;;
16804;SDS011;8520;50.102;20.010;2023-05-09T22:07:48;8.50;;;7.90;;
16804;SDS011;8520;50.102;20.010;2023-05-09T22:10:17;8.80;;;7.90;;
16804;SDS011;8520;50.102;20.010;2023-05-09T22:12:45;10.90;;;8.13;;
16804;SDS011;8520;50.102;20.010;2023-05-09T22:15:13;9.37;;;8.57;;
16804;SDS011;8520;50.102;20.010;2023-05-09T22:17:41;8.00;;;7.30;;
16804;SDS011;8520;50.102;20.010;2023-05-09T22:20:10;8.23;;;7.57;;
16804;SDS011;8520;50.102;20.010;2023-05-09T22:22:39;8.50;;;7.80;;
16804;SDS011;8520;50.102;20.010;2023-05-09T22:25:09;8.90;;;8.20;;
16804;SDS011;8520;50.102;20.010;2023-05-09T22:27:37;8.33;;;7.63;;
16804;SDS011;8520;50.102;20.010;2023-05-09T22:30:05;9.00;;;8.20;;
16804;SDS011;8520;50.102;20.010;2023-05-09T22:32:34;9.87;;;8.00;;